sensor_id;sensor_type;location;lat;lon;timestamp;P1;durP1;ratioP1;P2;durP2;ratioP2
30398;SDS011;17195;50.838;7.214;2023-04-07T00:02:10;13.10;;;9.07;;
30398;SDS011;17195;50.838;7.214;2023-04-07T00:04:36;12.23;;;9.07;;
30398;SDS011;17195;50.838;7.214;2023-04-07T00:07:01;13.70;;;10.07;;
30398;SDS011;17195;50.838;7.214;2023-04-07T00:09:27;14.48;;;10.38;;
30398;SDS011;17195;50.838;7.214;2023-04-07T00:11:52;11.05;;;9.38;;
30398;SDS011;17195;50.838;7.214;2023-04-07T00:14:18;12.45;;;9.57;;
30398;SDS011;17195;50.838;7.214;2023-04-07T00:16:44;14.45;;;9.93;;
30398;SDS011;17195;50.838;7.214;2023-04-07T00:19:10;12.55;;;9.85;;
30398;SDS011;17195;50.838;7.214;2023-04-07T00:21:35;13.85;;;9.90;;
30398;SDS011;17195;50.838;7.214;2023-04-07T00:24:01;12.48;;;9.27;;
30398;SDS011;17195;50.838;7.214;2023-04-07T00:26:26;14.55;;;9.93;;
30398;SDS011;17195;50.838;7.214;2023-04-07T00:28:55;14.88;;;10.13;;
30398;SDS011;17195;50.838;7.214;2023-04-07T00:31:21;14.07;;;9.75;;
30398;SDS011;17195;50.838;7.214;2023-04-07T00:33:47;13.82;;;10.10;;
30398;SDS011;17195;50.838;7.214;2023-04-07T00:36:13;14.73;;;10.27;;
30398;SDS011;17195;50.838;7.214;2023-04-07T00:38:39;13.05;;;9.23;;
30398;SDS011;17195;50.838;7.214;2023-04-07T00:41:05;11.45;;;9.15;;
30398;SDS011;17195;50.838;7.214;2023-04-07T00:43:30;14.55;;;9.45;;
30398;SDS011;17195;50.838;7.214;2023-04-07T00:45:56;12.27;;;9.95;;
30398;SDS011;17195;50.838;7.214;2023-04-07T00:48:22;12.27;;;9.85;;
30398;SDS011;17195;50.838;7.214;2023-04-07T00:50:48;13.05;;;9.82;;
30398;SDS011;17195;50.838;7.214;2023-04-07T00:53:13;16.15;;;9.55;;
30398;SDS011;17195;50.838;7.214;2023-04-07T00:55:40;14.02;;;9.98;;
30398;SDS011;17195;50.838;7.214;2023-04-07T00:58:05;16.35;;;10.10;;
30398;SDS011;17195;50.838;7.214;2023-04-07T01:00:32;14.85;;;10.40;;
30398;SDS011;17195;50.838;7.214;2023-04-07T01:03:08;12.20;;;9.82;;
30398;SDS011;17195;50.838;7.214;2023-04-07T01:08:32;15.23;;;10.77;;
30398;SDS011;17195;50.838;7.214;2023-04-07T01:11:24;13.98;;;10.20;;
30398;SDS011;17195;50.838;7.214;2023-04-07T01:13:55;12.10;;;9.30;;
30398;SDS011;17195;50.838;7.214;2023-04-07T01:19:00;12.45;;;9.45;;
30398;SDS011;17195;50.838;7.214;2023-04-07T01:21:36;15.35;;;11.02;;
30398;SDS011;17195;50.838;7.214;2023-04-07T01:26:46;15.60;;;10.68;;
30398;SDS011;17195;50.838;7.214;2023-04-07T01:32:06;15.82;;;10.60;;
30398;SDS011;17195;50.838;7.214;2023-04-07T01:34:35;14.20;;;10.82;;
30398;SDS011;17195;50.838;7.214;2023-04-07T01:37:02;13.70;;;11.30;;
30398;SDS011;17195;50.838;7.214;2023-04-07T01:39:29;15.18;;;11.23;;
30398;SDS011;17195;50.838;7.214;2023-04-07T01:41:56;13.77;;;11.15;;
30398;SDS011;17195;50.838;7.214;2023-04-07T01:44:22;16.80;;;11.80;;
30398;SDS011;17195;50.838;7.214;2023-04-07T01:46:50;13.82;;;10.52;;
30398;SDS011;17195;50.838;7.214;2023-04-07T01:49:15;16.00;;;11.43;;
30398;SDS011;17195;50.838;7.214;2023-04-07T01:51:42;16.50;;;12.02;;
30398;SDS011;17195;50.838;7.214;2023-04-07T01:54:14;16.50;;;12.00;;
30398;SDS011;17195;50.838;7.214;2023-04-07T01:56:40;16.75;;;12.25;;
30398;SDS011;17195;50.838;7.214;2023-04-07T01:59:05;15.70;;;12.00;;
30398;SDS011;17195;50.838;7.214;2023-04-07T02:01:31;14.35;;;11.43;;
30398;SDS011;17195;50.838;7.214;2023-04-07T02:07:07;16.88;;;11.52;;
30398;SDS011;17195;50.838;7.214;2023-04-07T02:09:39;15.18;;;12.13;;
30398;SDS011;17195;50.838;7.214;2023-04-07T02:12:07;18.30;;;12.40;;
30398;SDS011;17195;50.838;7.214;2023-04-07T02:14:35;17.67;;;11.85;;
30398;SDS011;17195;50.838;7.214;2023-04-07T02:17:02;17.45;;;12.45;;
30398;SDS011;17195;50.838;7.214;2023-04-07T02:19:28;17.73;;;12.77;;
30398;SDS011;17195;50.838;7.214;2023-04-07T02:21:54;17.33;;;12.25;;
30398;SDS011;17195;50.838;7.214;2023-04-07T02:24:21;16.80;;;12.98;;
30398;SDS011;17195;50.838;7.214;2023-04-07T02:26:46;16.80;;;12.25;;
30398;SDS011;17195;50.838;7.214;2023-04-07T02:29:12;17.08;;;12.55;;
30398;SDS011;17195;50.838;7.214;2023-04-07T02:31:38;14.63;;;11.48;;
30398;SDS011;17195;50.838;7.214;2023-04-07T02:34:03;16.48;;;11.85;;
30398;SDS011;17195;50.838;7.214;2023-04-07T02:36:29;14.48;;;11.52;;
30398;SDS011;17195;50.838;7.214;2023-04-07T02:38:55;16.02;;;12.25;;
30398;SDS011;17195;50.838;7.214;2023-04-07T02:41:20;16.42;;;12.45;;
30398;SDS011;17195;50.838;7.214;2023-04-07T02:43:46;15.10;;;11.77;;
30398;SDS011;17195;50.838;7.214;2023-04-07T02:46:11;18.08;;;12.15;;
30398;SDS011;17195;50.838;7.214;2023-04-07T02:48:37;14.52;;;11.27;;
30398;SDS011;17195;50.838;7.214;2023-04-07T02:51:03;17.70;;;12.90;;
30398;SDS011;17195;50.838;7.214;2023-04-07T02:53:29;16.35;;;13.10;;
30398;SDS011;17195;50.838;7.214;2023-04-07T02:55:54;15.07;;;12.00;;
30398;SDS011;17195;50.838;7.214;2023-04-07T02:58:20;15.85;;;11.45;;
30398;SDS011;17195;50.838;7.214;2023-04-07T03:00:46;16.08;;;12.57;;
30398;SDS011;17195;50.838;7.214;2023-04-07T03:03:13;14.70;;;12.00;;
30398;SDS011;17195;50.838;7.214;2023-04-07T03:05:38;14.63;;;11.65;;
30398;SDS011;17195;50.838;7.214;2023-04-07T03:08:04;15.95;;;13.10;;
30398;SDS011;17195;50.838;7.214;2023-04-07T03:10:29;15.25;;;11.48;;
30398;SDS011;17195;50.838;7.214;2023-04-07T03:12:55;15.00;;;11.90;;
30398;SDS011;17195;50.838;7.214;2023-04-07T03:15:21;13.95;;;11.20;;
30398;SDS011;17195;50.838;7.214;2023-04-07T03:17:47;14.77;;;11.55;;
30398;SDS011;17195;50.838;7.214;2023-04-07T03:20:12;16.38;;;12.55;;
30398;SDS011;17195;50.838;7.214;2023-04-07T03:22:38;15.80;;;12.95;;
30398;SDS011;17195;50.838;7.214;2023-04-07T03:25:04;15.18;;;12.07;;
30398;SDS011;17195;50.838;7.214;2023-04-07T03:27:29;16.52;;;13.20;;
30398;SDS011;17195;50.838;7.214;2023-04-07T03:29:55;17.30;;;12.90;;
30398;SDS011;17195;50.838;7.214;2023-04-07T03:32:21;14.85;;;11.32;;
30398;SDS011;17195;50.838;7.214;2023-04-07T03:34:46;18.48;;;13.77;;
30398;SDS011;17195;50.838;7.214;2023-04-07T03:37:12;20.30;;;14.43;;
30398;SDS011;17195;50.838;7.214;2023-04-07T03:39:37;22.55;;;15.95;;
30398;SDS011;17195;50.838;7.214;2023-04-07T03:42:05;19.08;;;14.65;;
30398;SDS011;17195;50.838;7.214;2023-04-07T03:44:30;27.73;;;19.10;;
30398;SDS011;17195;50.838;7.214;2023-04-07T03:46:57;25.20;;;17.15;;
30398;SDS011;17195;50.838;7.214;2023-04-07T03:49:22;25.40;;;18.65;;
30398;SDS011;17195;50.838;7.214;2023-04-07T03:51:48;33.65;;;21.33;;
30398;SDS011;17195;50.838;7.214;2023-04-07T03:54:13;34.45;;;23.10;;
30398;SDS011;17195;50.838;7.214;2023-04-07T03:56:39;39.42;;;24.48;;
30398;SDS011;17195;50.838;7.214;2023-04-07T03:59:05;41.25;;;25.98;;
30398;SDS011;17195;50.838;7.214;2023-04-07T04:01:31;41.30;;;26.33;;
30398;SDS011;17195;50.838;7.214;2023-04-07T04:03:57;37.15;;;23.13;;
30398;SDS011;17195;50.838;7.214;2023-04-07T04:06:22;40.88;;;25.25;;
30398;SDS011;17195;50.838;7.214;2023-04-07T04:08:48;40.70;;;24.52;;
30398;SDS011;17195;50.838;7.214;2023-04-07T04:11:13;43.22;;;26.02;;
30398;SDS011;17195;50.838;7.214;2023-04-07T04:13:39;42.45;;;25.77;;
30398;SDS011;17195;50.838;7.214;2023-04-07T04:16:05;44.30;;;27.90;;
30398;SDS011;17195;50.838;7.214;2023-04-07T04:18:31;48.22;;;28.27;;
30398;SDS011;17195;50.838;7.214;2023-04-07T04:20:57;45.00;;;26.33;;
30398;SDS011;17195;50.838;7.214;2023-04-07T04:23:22;48.88;;;27.27;;
30398;SDS011;17195;50.838;7.214;2023-04-07T04:25:48;48.38;;;27.95;;
30398;SDS011;17195;50.838;7.214;2023-04-07T04:28:13;47.05;;;27.10;;
30398;SDS011;17195;50.838;7.214;2023-04-07T04:30:39;49.70;;;27.80;;
30398;SDS011;17195;50.838;7.214;2023-04-07T04:33:05;47.53;;;27.90;;
30398;SDS011;17195;50.838;7.214;2023-04-07T04:35:31;45.67;;;26.95;;
30398;SDS011;17195;50.838;7.214;2023-04-07T04:37:56;43.92;;;25.98;;
30398;SDS011;17195;50.838;7.214;2023-04-07T04:40:22;42.13;;;25.70;;
30398;SDS011;17195;50.838;7.214;2023-04-07T04:42:48;44.85;;;26.00;;
30398;SDS011;17195;50.838;7.214;2023-04-07T04:45:13;47.75;;;27.45;;
30398;SDS011;17195;50.838;7.214;2023-04-07T04:47:39;43.53;;;24.80;;
30398;SDS011;17195;50.838;7.214;2023-04-07T04:50:06;45.95;;;25.25;;
30398;SDS011;17195;50.838;7.214;2023-04-07T04:52:32;45.90;;;26.48;;
30398;SDS011;17195;50.838;7.214;2023-04-07T04:54:58;47.35;;;27.02;;
30398;SDS011;17195;50.838;7.214;2023-04-07T04:57:24;42.50;;;24.83;;
30398;SDS011;17195;50.838;7.214;2023-04-07T04:59:49;50.38;;;27.58;;
30398;SDS011;17195;50.838;7.214;2023-04-07T05:02:15;44.90;;;26.27;;
30398;SDS011;17195;50.838;7.214;2023-04-07T05:04:40;51.78;;;27.30;;
30398;SDS011;17195;50.838;7.214;2023-04-07T05:07:06;55.67;;;28.98;;
30398;SDS011;17195;50.838;7.214;2023-04-07T05:09:31;45.60;;;27.17;;
30398;SDS011;17195;50.838;7.214;2023-04-07T05:11:57;52.38;;;29.10;;
30398;SDS011;17195;50.838;7.214;2023-04-07T05:14:23;50.28;;;27.83;;
30398;SDS011;17195;50.838;7.214;2023-04-07T05:16:48;47.28;;;27.40;;
30398;SDS011;17195;50.838;7.214;2023-04-07T05:19:14;46.58;;;26.08;;
30398;SDS011;17195;50.838;7.214;2023-04-07T05:21:40;53.25;;;27.48;;
30398;SDS011;17195;50.838;7.214;2023-04-07T05:24:05;46.40;;;26.77;;
30398;SDS011;17195;50.838;7.214;2023-04-07T05:26:31;53.47;;;28.25;;
30398;SDS011;17195;50.838;7.214;2023-04-07T05:28:56;46.45;;;27.27;;
30398;SDS011;17195;50.838;7.214;2023-04-07T05:31:22;55.47;;;28.38;;
30398;SDS011;17195;50.838;7.214;2023-04-07T05:33:47;53.97;;;28.10;;
30398;SDS011;17195;50.838;7.214;2023-04-07T05:36:13;48.45;;;27.95;;
30398;SDS011;17195;50.838;7.214;2023-04-07T05:38:40;51.42;;;27.58;;
30398;SDS011;17195;50.838;7.214;2023-04-07T05:41:05;48.20;;;27.83;;
30398;SDS011;17195;50.838;7.214;2023-04-07T05:43:31;45.67;;;27.58;;
30398;SDS011;17195;50.838;7.214;2023-04-07T05:45:56;50.72;;;28.00;;
30398;SDS011;17195;50.838;7.214;2023-04-07T05:48:22;46.17;;;26.40;;
30398;SDS011;17195;50.838;7.214;2023-04-07T05:50:47;54.28;;;27.48;;
30398;SDS011;17195;50.838;7.214;2023-04-07T05:53:13;46.03;;;27.15;;
30398;SDS011;17195;50.838;7.214;2023-04-07T05:55:41;49.15;;;28.00;;
30398;SDS011;17195;50.838;7.214;2023-04-07T05:58:07;51.85;;;28.25;;
30398;SDS011;17195;50.838;7.214;2023-04-07T06:00:33;48.17;;;27.48;;
30398;SDS011;17195;50.838;7.214;2023-04-07T06:02:58;46.17;;;26.55;;
30398;SDS011;17195;50.838;7.214;2023-04-07T06:05:25;50.17;;;28.27;;
30398;SDS011;17195;50.838;7.214;2023-04-07T06:07:51;47.58;;;25.73;;
30398;SDS011;17195;50.838;7.214;2023-04-07T06:10:16;48.00;;;26.30;;
30398;SDS011;17195;50.838;7.214;2023-04-07T06:12:42;43.80;;;26.38;;
30398;SDS011;17195;50.838;7.214;2023-04-07T06:15:08;47.58;;;24.73;;
30398;SDS011;17195;50.838;7.214;2023-04-07T06:17:33;42.15;;;24.10;;
30398;SDS011;17195;50.838;7.214;2023-04-07T06:19:59;40.08;;;22.83;;
30398;SDS011;17195;50.838;7.214;2023-04-07T06:22:24;39.15;;;23.33;;
30398;SDS011;17195;50.838;7.214;2023-04-07T06:24:50;40.95;;;22.55;;
30398;SDS011;17195;50.838;7.214;2023-04-07T06:27:16;39.28;;;23.13;;
30398;SDS011;17195;50.838;7.214;2023-04-07T06:29:42;41.60;;;22.50;;
30398;SDS011;17195;50.838;7.214;2023-04-07T06:32:08;35.10;;;21.02;;
30398;SDS011;17195;50.838;7.214;2023-04-07T06:34:33;34.13;;;20.70;;
30398;SDS011;17195;50.838;7.214;2023-04-07T06:36:59;34.88;;;21.27;;
30398;SDS011;17195;50.838;7.214;2023-04-07T06:39:25;35.42;;;20.23;;
30398;SDS011;17195;50.838;7.214;2023-04-07T06:41:51;30.42;;;19.08;;
30398;SDS011;17195;50.838;7.214;2023-04-07T06:44:16;32.05;;;18.98;;
30398;SDS011;17195;50.838;7.214;2023-04-07T06:46:42;34.30;;;19.25;;
30398;SDS011;17195;50.838;7.214;2023-04-07T06:49:11;31.52;;;17.20;;
30398;SDS011;17195;50.838;7.214;2023-04-07T06:51:36;29.20;;;17.02;;
30398;SDS011;17195;50.838;7.214;2023-04-07T06:54:02;30.80;;;17.38;;
30398;SDS011;17195;50.838;7.214;2023-04-07T06:56:29;33.63;;;16.75;;
30398;SDS011;17195;50.838;7.214;2023-04-07T06:58:55;27.88;;;14.57;;
30398;SDS011;17195;50.838;7.214;2023-04-07T07:01:20;24.98;;;14.65;;
30398;SDS011;17195;50.838;7.214;2023-04-07T07:03:46;25.08;;;15.35;;
30398;SDS011;17195;50.838;7.214;2023-04-07T07:06:11;24.60;;;14.73;;
30398;SDS011;17195;50.838;7.214;2023-04-07T07:08:38;25.17;;;14.57;;
30398;SDS011;17195;50.838;7.214;2023-04-07T07:11:03;22.35;;;13.45;;
30398;SDS011;17195;50.838;7.214;2023-04-07T07:13:29;23.77;;;14.23;;
30398;SDS011;17195;50.838;7.214;2023-04-07T07:15:55;20.20;;;13.05;;
30398;SDS011;17195;50.838;7.214;2023-04-07T07:18:20;21.55;;;12.98;;
30398;SDS011;17195;50.838;7.214;2023-04-07T07:20:46;20.55;;;12.23;;
30398;SDS011;17195;50.838;7.214;2023-04-07T07:23:11;21.73;;;12.48;;
30398;SDS011;17195;50.838;7.214;2023-04-07T07:25:37;19.83;;;12.60;;
30398;SDS011;17195;50.838;7.214;2023-04-07T07:28:02;21.10;;;11.95;;
30398;SDS011;17195;50.838;7.214;2023-04-07T07:30:28;25.77;;;13.13;;
30398;SDS011;17195;50.838;7.214;2023-04-07T07:32:54;19.48;;;11.32;;
30398;SDS011;17195;50.838;7.214;2023-04-07T07:35:20;20.23;;;11.55;;
30398;SDS011;17195;50.838;7.214;2023-04-07T07:37:46;17.90;;;10.75;;
30398;SDS011;17195;50.838;7.214;2023-04-07T07:40:13;18.05;;;11.13;;
30398;SDS011;17195;50.838;7.214;2023-04-07T07:42:38;19.17;;;11.18;;
30398;SDS011;17195;50.838;7.214;2023-04-07T07:45:04;17.33;;;10.55;;
30398;SDS011;17195;50.838;7.214;2023-04-07T07:47:30;19.10;;;11.13;;
30398;SDS011;17195;50.838;7.214;2023-04-07T07:49:56;15.43;;;9.45;;
30398;SDS011;17195;50.838;7.214;2023-04-07T07:52:22;14.20;;;9.95;;
30398;SDS011;17195;50.838;7.214;2023-04-07T07:54:48;14.57;;;9.15;;
30398;SDS011;17195;50.838;7.214;2023-04-07T07:57:14;11.93;;;8.18;;
30398;SDS011;17195;50.838;7.214;2023-04-07T07:59:40;13.27;;;8.60;;
30398;SDS011;17195;50.838;7.214;2023-04-07T08:02:06;15.13;;;8.48;;
30398;SDS011;17195;50.838;7.214;2023-04-07T08:04:32;12.63;;;8.20;;
30398;SDS011;17195;50.838;7.214;2023-04-07T08:06:59;13.57;;;7.95;;
30398;SDS011;17195;50.838;7.214;2023-04-07T08:09:24;11.50;;;7.80;;
30398;SDS011;17195;50.838;7.214;2023-04-07T08:11:50;13.18;;;6.90;;
30398;SDS011;17195;50.838;7.214;2023-04-07T08:14:16;14.75;;;7.40;;
30398;SDS011;17195;50.838;7.214;2023-04-07T08:16:42;12.82;;;7.72;;
30398;SDS011;17195;50.838;7.214;2023-04-07T08:19:08;12.20;;;6.65;;
30398;SDS011;17195;50.838;7.214;2023-04-07T08:21:33;15.30;;;7.20;;
30398;SDS011;17195;50.838;7.214;2023-04-07T08:23:59;12.77;;;6.45;;
30398;SDS011;17195;50.838;7.214;2023-04-07T08:26:25;10.50;;;7.15;;
30398;SDS011;17195;50.838;7.214;2023-04-07T08:28:51;13.35;;;6.25;;
30398;SDS011;17195;50.838;7.214;2023-04-07T08:31:17;11.68;;;7.13;;
30398;SDS011;17195;50.838;7.214;2023-04-07T08:33:42;10.00;;;6.13;;
30398;SDS011;17195;50.838;7.214;2023-04-07T08:36:08;10.32;;;6.35;;
30398;SDS011;17195;50.838;7.214;2023-04-07T08:38:33;10.63;;;6.68;;
30398;SDS011;17195;50.838;7.214;2023-04-07T08:41:03;11.05;;;7.22;;
30398;SDS011;17195;50.838;7.214;2023-04-07T08:43:32;12.05;;;6.90;;
30398;SDS011;17195;50.838;7.214;2023-04-07T08:46:00;10.10;;;6.90;;
30398;SDS011;17195;50.838;7.214;2023-04-07T08:48:26;10.85;;;6.65;;
30398;SDS011;17195;50.838;7.214;2023-04-07T08:50:59;10.18;;;6.70;;
30398;SDS011;17195;50.838;7.214;2023-04-07T08:53:32;11.57;;;6.82;;
30398;SDS011;17195;50.838;7.214;2023-04-07T08:56:04;9.95;;;7.00;;
30398;SDS011;17195;50.838;7.214;2023-04-07T08:58:31;12.50;;;7.38;;
30398;SDS011;17195;50.838;7.214;2023-04-07T09:00:57;10.80;;;6.90;;
30398;SDS011;17195;50.838;7.214;2023-04-07T09:03:23;10.32;;;7.20;;
30398;SDS011;17195;50.838;7.214;2023-04-07T09:05:50;10.23;;;6.80;;
30398;SDS011;17195;50.838;7.214;2023-04-07T09:08:16;10.75;;;7.40;;
30398;SDS011;17195;50.838;7.214;2023-04-07T09:10:42;11.30;;;7.72;;
30398;SDS011;17195;50.838;7.214;2023-04-07T09:13:07;11.57;;;7.53;;
30398;SDS011;17195;50.838;7.214;2023-04-07T09:15:33;12.52;;;7.75;;
30398;SDS011;17195;50.838;7.214;2023-04-07T09:17:59;12.48;;;8.20;;
30398;SDS011;17195;50.838;7.214;2023-04-07T09:20:25;14.40;;;8.70;;
30398;SDS011;17195;50.838;7.214;2023-04-07T09:22:51;14.55;;;8.77;;
30398;SDS011;17195;50.838;7.214;2023-04-07T09:27:53;12.98;;;7.32;;
30398;SDS011;17195;50.838;7.214;2023-04-07T09:30:23;15.68;;;8.48;;
30398;SDS011;17195;50.838;7.214;2023-04-07T09:32:49;18.80;;;8.32;;
30398;SDS011;17195;50.838;7.214;2023-04-07T09:35:15;16.83;;;7.63;;
30398;SDS011;17195;50.838;7.214;2023-04-07T09:37:41;12.32;;;8.43;;
30398;SDS011;17195;50.838;7.214;2023-04-07T09:40:07;12.55;;;7.60;;
30398;SDS011;17195;50.838;7.214;2023-04-07T09:42:33;10.88;;;7.63;;
30398;SDS011;17195;50.838;7.214;2023-04-07T09:45:02;16.20;;;8.93;;
30398;SDS011;17195;50.838;7.214;2023-04-07T09:47:28;16.55;;;8.45;;
30398;SDS011;17195;50.838;7.214;2023-04-07T09:49:56;13.43;;;8.07;;
30398;SDS011;17195;50.838;7.214;2023-04-07T09:55:16;12.98;;;8.45;;
30398;SDS011;17195;50.838;7.214;2023-04-07T09:57:47;13.38;;;8.45;;
30398;SDS011;17195;50.838;7.214;2023-04-07T10:00:16;14.43;;;8.60;;
30398;SDS011;17195;50.838;7.214;2023-04-07T10:02:42;18.30;;;8.00;;
30398;SDS011;17195;50.838;7.214;2023-04-07T10:05:08;14.40;;;8.75;;
30398;SDS011;17195;50.838;7.214;2023-04-07T10:07:34;14.10;;;8.88;;
30398;SDS011;17195;50.838;7.214;2023-04-07T10:10:01;15.27;;;8.82;;
30398;SDS011;17195;50.838;7.214;2023-04-07T10:12:28;15.13;;;8.35;;
30398;SDS011;17195;50.838;7.214;2023-04-07T10:14:56;13.85;;;8.82;;
30398;SDS011;17195;50.838;7.214;2023-04-07T10:17:23;17.35;;;9.25;;
30398;SDS011;17195;50.838;7.214;2023-04-07T10:19:50;16.80;;;9.18;;
30398;SDS011;17195;50.838;7.214;2023-04-07T10:22:17;13.20;;;8.45;;
30398;SDS011;17195;50.838;7.214;2023-04-07T10:27:31;13.95;;;8.98;;
30398;SDS011;17195;50.838;7.214;2023-04-07T10:29:59;16.45;;;9.07;;
30398;SDS011;17195;50.838;7.214;2023-04-07T10:32:25;14.75;;;8.48;;
30398;SDS011;17195;50.838;7.214;2023-04-07T10:37:21;12.20;;;8.52;;
30398;SDS011;17195;50.838;7.214;2023-04-07T10:39:48;16.05;;;8.45;;
30398;SDS011;17195;50.838;7.214;2023-04-07T10:45:08;13.05;;;8.60;;
30398;SDS011;17195;50.838;7.214;2023-04-07T10:47:34;14.32;;;8.77;;
30398;SDS011;17195;50.838;7.214;2023-04-07T10:50:23;14.35;;;8.68;;
30398;SDS011;17195;50.838;7.214;2023-04-07T10:53:08;14.32;;;8.70;;
30398;SDS011;17195;50.838;7.214;2023-04-07T10:55:38;17.40;;;8.73;;
30398;SDS011;17195;50.838;7.214;2023-04-07T11:03:34;13.07;;;8.07;;
30398;SDS011;17195;50.838;7.214;2023-04-07T11:06:03;11.27;;;8.02;;
30398;SDS011;17195;50.838;7.214;2023-04-07T11:08:36;13.77;;;7.55;;
30398;SDS011;17195;50.838;7.214;2023-04-07T11:11:06;12.13;;;7.45;;
30398;SDS011;17195;50.838;7.214;2023-04-07T11:13:48;14.65;;;8.32;;
30398;SDS011;17195;50.838;7.214;2023-04-07T11:16:15;15.00;;;8.35;;
30398;SDS011;17195;50.838;7.214;2023-04-07T11:18:42;11.75;;;8.05;;
30398;SDS011;17195;50.838;7.214;2023-04-07T11:21:09;12.98;;;8.93;;
30398;SDS011;17195;50.838;7.214;2023-04-07T11:23:38;13.80;;;8.40;;
30398;SDS011;17195;50.838;7.214;2023-04-07T11:26:05;15.32;;;8.63;;
30398;SDS011;17195;50.838;7.214;2023-04-07T11:28:32;12.70;;;8.10;;
30398;SDS011;17195;50.838;7.214;2023-04-07T11:30:58;14.25;;;9.23;;
30398;SDS011;17195;50.838;7.214;2023-04-07T11:33:25;13.77;;;9.40;;
30398;SDS011;17195;50.838;7.214;2023-04-07T11:35:55;15.13;;;9.07;;
30398;SDS011;17195;50.838;7.214;2023-04-07T11:38:24;15.65;;;9.52;;
30398;SDS011;17195;50.838;7.214;2023-04-07T11:40:51;16.77;;;10.23;;
30398;SDS011;17195;50.838;7.214;2023-04-07T11:43:19;17.23;;;10.60;;
30398;SDS011;17195;50.838;7.214;2023-04-07T11:45:45;19.13;;;11.45;;
30398;SDS011;17195;50.838;7.214;2023-04-07T11:48:31;22.35;;;11.95;;
30398;SDS011;17195;50.838;7.214;2023-04-07T11:50:58;19.02;;;10.93;;
30398;SDS011;17195;50.838;7.214;2023-04-07T11:53:25;18.05;;;12.30;;
30398;SDS011;17195;50.838;7.214;2023-04-07T11:58:34;23.52;;;13.75;;
30398;SDS011;17195;50.838;7.214;2023-04-07T12:01:00;38.22;;;22.20;;
30398;SDS011;17195;50.838;7.214;2023-04-07T12:03:30;20.60;;;12.52;;
30398;SDS011;17195;50.838;7.214;2023-04-07T12:05:57;20.23;;;12.05;;
30398;SDS011;17195;50.838;7.214;2023-04-07T12:08:36;18.85;;;10.75;;
30398;SDS011;17195;50.838;7.214;2023-04-07T12:11:06;20.75;;;12.18;;
30398;SDS011;17195;50.838;7.214;2023-04-07T12:13:33;17.42;;;11.25;;
30398;SDS011;17195;50.838;7.214;2023-04-07T12:15:59;16.67;;;10.07;;
30398;SDS011;17195;50.838;7.214;2023-04-07T12:18:25;16.70;;;10.60;;
30398;SDS011;17195;50.838;7.214;2023-04-07T12:20:52;17.20;;;9.85;;
30398;SDS011;17195;50.838;7.214;2023-04-07T12:23:17;17.00;;;10.00;;
30398;SDS011;17195;50.838;7.214;2023-04-07T12:25:43;16.65;;;10.63;;
30398;SDS011;17195;50.838;7.214;2023-04-07T12:28:08;22.92;;;14.40;;
30398;SDS011;17195;50.838;7.214;2023-04-07T12:30:34;27.15;;;15.23;;
30398;SDS011;17195;50.838;7.214;2023-04-07T12:33:00;21.80;;;12.63;;
30398;SDS011;17195;50.838;7.214;2023-04-07T12:35:27;20.30;;;11.75;;
30398;SDS011;17195;50.838;7.214;2023-04-07T12:37:53;21.55;;;13.48;;
30398;SDS011;17195;50.838;7.214;2023-04-07T12:40:18;23.25;;;11.98;;
30398;SDS011;17195;50.838;7.214;2023-04-07T12:42:45;19.85;;;11.20;;
30398;SDS011;17195;50.838;7.214;2023-04-07T12:45:10;18.42;;;11.75;;
30398;SDS011;17195;50.838;7.214;2023-04-07T12:47:36;25.23;;;14.32;;
30398;SDS011;17195;50.838;7.214;2023-04-07T12:50:01;18.20;;;12.95;;
30398;SDS011;17195;50.838;7.214;2023-04-07T12:52:27;22.23;;;12.63;;
30398;SDS011;17195;50.838;7.214;2023-04-07T12:54:53;18.65;;;11.18;;
30398;SDS011;17195;50.838;7.214;2023-04-07T12:57:18;17.55;;;11.60;;
30398;SDS011;17195;50.838;7.214;2023-04-07T12:59:45;20.63;;;11.68;;
30398;SDS011;17195;50.838;7.214;2023-04-07T13:02:11;19.45;;;11.75;;
30398;SDS011;17195;50.838;7.214;2023-04-07T13:04:37;19.52;;;12.02;;
30398;SDS011;17195;50.838;7.214;2023-04-07T13:07:07;16.55;;;11.93;;
30398;SDS011;17195;50.838;7.214;2023-04-07T13:09:33;19.08;;;12.45;;
30398;SDS011;17195;50.838;7.214;2023-04-07T13:11:59;20.02;;;12.25;;
30398;SDS011;17195;50.838;7.214;2023-04-07T13:14:24;16.77;;;11.60;;
30398;SDS011;17195;50.838;7.214;2023-04-07T13:16:50;18.13;;;10.30;;
30398;SDS011;17195;50.838;7.214;2023-04-07T13:19:15;21.75;;;11.90;;
30398;SDS011;17195;50.838;7.214;2023-04-07T13:21:42;20.33;;;12.98;;
30398;SDS011;17195;50.838;7.214;2023-04-07T13:24:08;22.55;;;17.35;;
30398;SDS011;17195;50.838;7.214;2023-04-07T13:26:33;19.75;;;11.27;;
30398;SDS011;17195;50.838;7.214;2023-04-07T13:28:59;16.55;;;11.38;;
30398;SDS011;17195;50.838;7.214;2023-04-07T13:31:25;19.30;;;12.38;;
30398;SDS011;17195;50.838;7.214;2023-04-07T13:33:51;19.70;;;11.68;;
30398;SDS011;17195;50.838;7.214;2023-04-07T13:36:17;15.43;;;11.10;;
30398;SDS011;17195;50.838;7.214;2023-04-07T13:38:43;19.42;;;12.40;;
30398;SDS011;17195;50.838;7.214;2023-04-07T13:41:08;18.58;;;13.05;;
30398;SDS011;17195;50.838;7.214;2023-04-07T13:43:34;16.20;;;12.07;;
30398;SDS011;17195;50.838;7.214;2023-04-07T13:45:59;21.08;;;12.95;;
30398;SDS011;17195;50.838;7.214;2023-04-07T13:48:25;20.90;;;12.63;;
30398;SDS011;17195;50.838;7.214;2023-04-07T13:50:50;19.52;;;11.85;;
30398;SDS011;17195;50.838;7.214;2023-04-07T13:53:16;18.98;;;11.48;;
30398;SDS011;17195;50.838;7.214;2023-04-07T13:55:41;20.15;;;11.73;;
30398;SDS011;17195;50.838;7.214;2023-04-07T13:58:07;18.13;;;11.52;;
30398;SDS011;17195;50.838;7.214;2023-04-07T14:00:32;19.63;;;13.60;;
30398;SDS011;17195;50.838;7.214;2023-04-07T14:02:59;20.48;;;13.70;;
30398;SDS011;17195;50.838;7.214;2023-04-07T14:05:25;16.30;;;12.07;;
30398;SDS011;17195;50.838;7.214;2023-04-07T14:07:51;19.20;;;12.88;;
30398;SDS011;17195;50.838;7.214;2023-04-07T14:10:16;22.95;;;13.93;;
30398;SDS011;17195;50.838;7.214;2023-04-07T14:12:42;21.65;;;13.90;;
30398;SDS011;17195;50.838;7.214;2023-04-07T14:15:07;25.40;;;15.20;;
30398;SDS011;17195;50.838;7.214;2023-04-07T14:17:33;23.85;;;14.25;;
30398;SDS011;17195;50.838;7.214;2023-04-07T14:19:59;22.85;;;14.10;;
30398;SDS011;17195;50.838;7.214;2023-04-07T14:22:25;21.05;;;13.02;;
30398;SDS011;17195;50.838;7.214;2023-04-07T14:24:50;22.70;;;13.63;;
30398;SDS011;17195;50.838;7.214;2023-04-07T14:27:16;23.80;;;13.35;;
30398;SDS011;17195;50.838;7.214;2023-04-07T14:29:45;20.92;;;12.85;;
30398;SDS011;17195;50.838;7.214;2023-04-07T14:32:11;22.20;;;13.40;;
30398;SDS011;17195;50.838;7.214;2023-04-07T14:34:36;18.05;;;12.27;;
30398;SDS011;17195;50.838;7.214;2023-04-07T14:37:02;21.65;;;11.95;;
30398;SDS011;17195;50.838;7.214;2023-04-07T14:39:28;20.00;;;11.75;;
30398;SDS011;17195;50.838;7.214;2023-04-07T14:41:54;20.38;;;13.13;;
30398;SDS011;17195;50.838;7.214;2023-04-07T14:44:19;16.45;;;11.30;;
30398;SDS011;17195;50.838;7.214;2023-04-07T14:46:45;15.57;;;10.82;;
30398;SDS011;17195;50.838;7.214;2023-04-07T14:49:12;15.00;;;10.23;;
30398;SDS011;17195;50.838;7.214;2023-04-07T14:51:38;19.13;;;11.30;;
30398;SDS011;17195;50.838;7.214;2023-04-07T14:54:04;13.60;;;10.05;;
30398;SDS011;17195;50.838;7.214;2023-04-07T14:56:30;16.50;;;10.55;;
30398;SDS011;17195;50.838;7.214;2023-04-07T14:58:56;15.90;;;10.23;;